sensor_id;sensor_type;location;lat;lon;timestamp;temperature;humidity
9167;DHT22;4618;48.818;9.088;2022-07-29T00:02:06;18.70;1.00
9167;DHT22;4618;48.818;9.088;2022-07-29T00:04:34;18.80;1.00
9167;DHT22;4618;48.818;9.088;2022-07-29T00:07:00;18.80;1.00
9167;DHT22;4618;48.818;9.088;2022-07-29T00:09:25;18.70;97.90
9167;DHT22;4618;48.818;9.088;2022-07-29T00:11:51;18.70;99.90
9167;DHT22;4618;48.818;9.088;2022-07-29T00:14:17;18.60;99.90
9167;DHT22;4618;48.818;9.088;2022-07-29T00:16:43;18.40;1.00
9167;DHT22;4618;48.818;9.088;2022-07-29T00:19:08;18.40;1.00
9167;DHT22;4618;48.818;9.088;2022-07-29T00:21:34;18.30;30.00
9167;DHT22;4618;48.818;9.088;2022-07-29T00:23:59;18.30;99.90
9167;DHT22;4618;48.818;9.088;2022-07-29T00:26:25;18.30;31.90
9167;DHT22;4618;48.818;9.088;2022-07-29T00:28:53;18.30;30.60
9167;DHT22;4618;48.818;9.088;2022-07-29T00:31:18;18.40;99.90
9167;DHT22;4618;48.818;9.088;2022-07-29T00:33:44;18.50;99.90
9167;DHT22;4618;48.818;9.088;2022-07-29T00:36:09;18.50;99.90
9167;DHT22;4618;48.818;9.088;2022-07-29T00:38:35;18.40;99.90
9167;DHT22;4618;48.818;9.088;2022-07-29T00:41:00;18.40;99.90
9167;DHT22;4618;48.818;9.088;2022-07-29T00:43:26;18.30;99.90
9167;DHT22;4618;48.818;9.088;2022-07-29T00:45:52;18.20;1.00
9167;DHT22;4618;48.818;9.088;2022-07-29T00:48:17;18.10;1.00
9167;DHT22;4618;48.818;9.088;2022-07-29T00:50:43;18.10;1.00
9167;DHT22;4618;48.818;9.088;2022-07-29T00:53:10;18.20;1.00
9167;DHT22;4618;48.818;9.088;2022-07-29T00:55:36;18.20;1.00
9167;DHT22;4618;48.818;9.088;2022-07-29T00:58:02;18.30;1.00
9167;DHT22;4618;48.818;9.088;2022-07-29T01:00:28;18.40;1.00
9167;DHT22;4618;48.818;9.088;2022-07-29T01:02:54;18.40;1.00
9167;DHT22;4618;48.818;9.088;2022-07-29T01:05:21;18.30;1.00
9167;DHT22;4618;48.818;9.088;2022-07-29T01:07:49;18.30;1.00
9167;DHT22;4618;48.818;9.088;2022-07-29T01:10:18;18.30;1.00
9167;DHT22;4618;48.818;9.088;2022-07-29T01:12:47;18.30;1.00
9167;DHT22;4618;48.818;9.088;2022-07-29T01:15:13;18.30;1.00
9167;DHT22;4618;48.818;9.088;2022-07-29T01:18:04;18.40;1.00
9167;DHT22;4618;48.818;9.088;2022-07-29T01:29:16;18.60;99.90
9167;DHT22;4618;48.818;9.088;2022-07-29T01:34:30;18.60;99.90
9167;DHT22;4618;48.818;9.088;2022-07-29T01:37:21;18.60;99.90
9167;DHT22;4618;48.818;9.088;2022-07-29T01:39:49;18.60;99.90
9167;DHT22;4618;48.818;9.088;2022-07-29T01:42:45;18.60;99.90
9167;DHT22;4618;48.818;9.088;2022-07-29T01:45:48;18.60;99.90
9167;DHT22;4618;48.818;9.088;2022-07-29T01:48:24;18.70;49.80
9167;DHT22;4618;48.818;9.088;2022-07-29T01:51:02;18.70;1.00
9167;DHT22;4618;48.818;9.088;2022-07-29T01:53:35;18.80;1.00
9167;DHT22;4618;48.818;9.088;2022-07-29T01:56:02;18.70;1.00
9167;DHT22;4618;48.818;9.088;2022-07-29T01:58:29;18.60;1.00
9167;DHT22;4618;48.818;9.088;2022-07-29T02:00:57;18.60;1.00
9167;DHT22;4618;48.818;9.088;2022-07-29T02:03:24;18.50;99.90
9167;DHT22;4618;48.818;9.088;2022-07-29T02:05:52;18.60;62.40
9167;DHT22;4618;48.818;9.088;2022-07-29T02:08:19;18.60;1.00
9167;DHT22;4618;48.818;9.088;2022-07-29T02:10:46;18.50;99.90
9167;DHT22;4618;48.818;9.088;2022-07-29T02:13:12;18.50;99.90
9167;DHT22;4618;48.818;9.088;2022-07-29T02:15:41;18.30;99.90
9167;DHT22;4618;48.818;9.088;2022-07-29T02:18:11;18.30;99.90
9167;DHT22;4618;48.818;9.088;2022-07-29T02:20:38;18.30;99.90
9167;DHT22;4618;48.818;9.088;2022-07-29T02:23:07;18.40;99.90
9167;DHT22;4618;48.818;9.088;2022-07-29T02:25:36;18.30;99.90
9167;DHT22;4618;48.818;9.088;2022-07-29T02:28:03;18.20;99.90
9167;DHT22;4618;48.818;9.088;2022-07-29T02:30:30;18.30;99.90
9167;DHT22;4618;48.818;9.088;2022-07-29T02:32:57;18.30;99.90
9167;DHT22;4618;48.818;9.088;2022-07-29T02:35:23;18.40;99.90
9167;DHT22;4618;48.818;9.088;2022-07-29T02:37:50;18.60;1.00
9167;DHT22;4618;48.818;9.088;2022-07-29T02:40:38;18.70;1.00
9167;DHT22;4618;48.818;9.088;2022-07-29T02:43:05;18.70;1.00
9167;DHT22;4618;48.818;9.088;2022-07-29T02:45:32;18.70;1.00
9167;DHT22;4618;48.818;9.088;2022-07-29T02:47:59;18.70;1.00
9167;DHT22;4618;48.818;9.088;2022-07-29T02:50:34;18.60;1.00
9167;DHT22;4618;48.818;9.088;2022-07-29T02:53:07;18.60;1.00
9167;DHT22;4618;48.818;9.088;2022-07-29T02:55:37;18.60;1.00
9167;DHT22;4618;48.818;9.088;2022-07-29T03:00:59;18.50;1.00
9167;DHT22;4618;48.818;9.088;2022-07-29T03:03:30;18.40;1.00
9167;DHT22;4618;48.818;9.088;2022-07-29T03:05:57;18.20;99.90
9167;DHT22;4618;48.818;9.088;2022-07-29T03:08:23;18.20;99.90
9167;DHT22;4618;48.818;9.088;2022-07-29T03:10:50;18.20;1.00
9167;DHT22;4618;48.818;9.088;2022-07-29T03:13:16;18.20;99.90
9167;DHT22;4618;48.818;9.088;2022-07-29T03:15:43;18.20;1.00
9167;DHT22;4618;48.818;9.088;2022-07-29T03:18:10;18.10;1.00
9167;DHT22;4618;48.818;9.088;2022-07-29T03:20:37;18.10;1.00
9167;DHT22;4618;48.818;9.088;2022-07-29T03:23:03;18.10;1.00
9167;DHT22;4618;48.818;9.088;2022-07-29T03:25:30;18.00;1.00
9167;DHT22;4618;48.818;9.088;2022-07-29T03:27:55;18.00;1.00
9167;DHT22;4618;48.818;9.088;2022-07-29T03:30:22;17.90;1.00
9167;DHT22;4618;48.818;9.088;2022-07-29T03:32:49;17.90;1.00
9167;DHT22;4618;48.818;9.088;2022-07-29T03:35:14;17.90;1.00
9167;DHT22;4618;48.818;9.088;2022-07-29T03:37:42;17.90;1.00
9167;DHT22;4618;48.818;9.088;2022-07-29T03:40:08;18.20;1.00
9167;DHT22;4618;48.818;9.088;2022-07-29T03:42:38;18.30;99.90
9167;DHT22;4618;48.818;9.088;2022-07-29T03:45:11;18.30;99.90
9167;DHT22;4618;48.818;9.088;2022-07-29T03:47:40;18.20;1.00
9167;DHT22;4618;48.818;9.088;2022-07-29T03:50:10;18.20;1.00
9167;DHT22;4618;48.818;9.088;2022-07-29T03:52:37;18.20;1.00
9167;DHT22;4618;48.818;9.088;2022-07-29T03:55:03;18.20;1.00
9167;DHT22;4618;48.818;9.088;2022-07-29T03:57:30;18.20;1.00
9167;DHT22;4618;48.818;9.088;2022-07-29T03:59:57;18.00;1.00
9167;DHT22;4618;48.818;9.088;2022-07-29T04:02:23;18.10;1.00
9167;DHT22;4618;48.818;9.088;2022-07-29T04:04:51;18.10;1.00
9167;DHT22;4618;48.818;9.088;2022-07-29T04:07:17;18.00;1.00
9167;DHT22;4618;48.818;9.088;2022-07-29T04:09:43;18.00;1.00
9167;DHT22;4618;48.818;9.088;2022-07-29T04:12:09;17.90;1.00
9167;DHT22;4618;48.818;9.088;2022-07-29T04:14:35;17.80;1.00
9167;DHT22;4618;48.818;9.088;2022-07-29T04:17:03;17.70;99.90
9167;DHT22;4618;48.818;9.088;2022-07-29T04:19:28;17.60;99.90
9167;DHT22;4618;48.818;9.088;2022-07-29T04:21:54;17.50;99.90
9167;DHT22;4618;48.818;9.088;2022-07-29T04:24:20;17.40;1.00
9167;DHT22;4618;48.818;9.088;2022-07-29T04:26:46;17.40;1.00
9167;DHT22;4618;48.818;9.088;2022-07-29T04:29:13;17.50;1.00
9167;DHT22;4618;48.818;9.088;2022-07-29T04:31:40;17.60;1.00
9167;DHT22;4618;48.818;9.088;2022-07-29T04:34:06;17.70;99.90
9167;DHT22;4618;48.818;9.088;2022-07-29T04:36:32;17.90;99.90
9167;DHT22;4618;48.818;9.088;2022-07-29T04:38:58;17.90;99.90
9167;DHT22;4618;48.818;9.088;2022-07-29T04:41:23;18.00;99.90
9167;DHT22;4618;48.818;9.088;2022-07-29T04:43:49;18.10;99.90
9167;DHT22;4618;48.818;9.088;2022-07-29T04:46:15;18.20;1.00
9167;DHT22;4618;48.818;9.088;2022-07-29T04:48:40;18.30;1.00
9167;DHT22;4618;48.818;9.088;2022-07-29T04:51:06;18.50;1.00
9167;DHT22;4618;48.818;9.088;2022-07-29T04:53:32;18.60;99.90
9167;DHT22;4618;48.818;9.088;2022-07-29T04:55:57;18.70;99.90
9167;DHT22;4618;48.818;9.088;2022-07-29T04:58:23;18.80;99.90
9167;DHT22;4618;48.818;9.088;2022-07-29T05:00:49;18.80;99.90
9167;DHT22;4618;48.818;9.088;2022-07-29T05:03:15;18.90;41.40
9167;DHT22;4618;48.818;9.088;2022-07-29T05:05:40;18.90;99.90
9167;DHT22;4618;48.818;9.088;2022-07-29T05:08:07;19.10;99.90
9167;DHT22;4618;48.818;9.088;2022-07-29T05:10:33;19.20;99.90
9167;DHT22;4618;48.818;9.088;2022-07-29T05:13:02;19.40;1.00
9167;DHT22;4618;48.818;9.088;2022-07-29T05:15:28;19.50;1.00
9167;DHT22;4618;48.818;9.088;2022-07-29T05:17:53;19.50;1.00
9167;DHT22;4618;48.818;9.088;2022-07-29T05:20:19;19.60;1.00
9167;DHT22;4618;48.818;9.088;2022-07-29T05:22:51;19.80;99.90
9167;DHT22;4618;48.818;9.088;2022-07-29T05:25:16;19.90;99.90
9167;DHT22;4618;48.818;9.088;2022-07-29T05:27:42;20.20;5.20
9167;DHT22;4618;48.818;9.088;2022-07-29T05:30:08;20.20;99.90
9167;DHT22;4618;48.818;9.088;2022-07-29T05:32:33;20.30;74.30
9167;DHT22;4618;48.818;9.088;2022-07-29T05:34:59;20.20;1.00
9167;DHT22;4618;48.818;9.088;2022-07-29T05:37:25;20.40;1.00
9167;DHT22;4618;48.818;9.088;2022-07-29T05:39:50;20.70;1.00
9167;DHT22;4618;48.818;9.088;2022-07-29T05:42:16;20.90;99.90
9167;DHT22;4618;48.818;9.088;2022-07-29T05:44:41;21.10;99.90
9167;DHT22;4618;48.818;9.088;2022-07-29T05:47:07;21.20;99.90
9167;DHT22;4618;48.818;9.088;2022-07-29T05:49:33;21.40;99.90
9167;DHT22;4618;48.818;9.088;2022-07-29T05:51:58;21.50;26.20
9167;DHT22;4618;48.818;9.088;2022-07-29T05:54:24;21.60;1.00
9167;DHT22;4618;48.818;9.088;2022-07-29T05:56:50;21.70;1.00
9167;DHT22;4618;48.818;9.088;2022-07-29T05:59:15;21.80;1.00
9167;DHT22;4618;48.818;9.088;2022-07-29T06:01:41;21.80;1.00
9167;DHT22;4618;48.818;9.088;2022-07-29T06:04:06;21.90;1.00
9167;DHT22;4618;48.818;9.088;2022-07-29T06:06:33;21.90;1.00
9167;DHT22;4618;48.818;9.088;2022-07-29T06:08:59;22.30;1.00
9167;DHT22;4618;48.818;9.088;2022-07-29T06:11:25;22.60;99.90
9167;DHT22;4618;48.818;9.088;2022-07-29T06:13:51;22.70;99.90
9167;DHT22;4618;48.818;9.088;2022-07-29T06:16:16;22.80;30.70
9167;DHT22;4618;48.818;9.088;2022-07-29T06:18:42;23.00;1.00
9167;DHT22;4618;48.818;9.088;2022-07-29T06:21:08;23.10;1.00
9167;DHT22;4618;48.818;9.088;2022-07-29T06:23:38;23.30;1.00
9167;DHT22;4618;48.818;9.088;2022-07-29T06:26:03;23.10;1.00
9167;DHT22;4618;48.818;9.088;2022-07-29T06:28:29;23.10;99.90
9167;DHT22;4618;48.818;9.088;2022-07-29T06:30:54;23.20;99.90
9167;DHT22;4618;48.818;9.088;2022-07-29T06:33:20;23.40;99.90
9167;DHT22;4618;48.818;9.088;2022-07-29T06:35:46;23.70;99.90
9167;DHT22;4618;48.818;9.088;2022-07-29T06:38:13;23.80;95.00
9167;DHT22;4618;48.818;9.088;2022-07-29T06:40:42;23.70;94.20
9167;DHT22;4618;48.818;9.088;2022-07-29T06:43:37;23.60;48.00
9167;DHT22;4618;48.818;9.088;2022-07-29T06:46:06;23.30;99.90
9167;DHT22;4618;48.818;9.088;2022-07-29T06:48:32;23.30;99.90
9167;DHT22;4618;48.818;9.088;2022-07-29T06:50:58;23.20;99.90
9167;DHT22;4618;48.818;9.088;2022-07-29T06:53:25;23.30;99.90
9167;DHT22;4618;48.818;9.088;2022-07-29T06:55:51;23.40;99.90
9167;DHT22;4618;48.818;9.088;2022-07-29T06:58:17;23.70;1.00
9167;DHT22;4618;48.818;9.088;2022-07-29T07:00:46;24.00;1.00
9167;DHT22;4618;48.818;9.088;2022-07-29T07:03:12;24.20;1.00
9167;DHT22;4618;48.818;9.088;2022-07-29T07:05:38;24.40;1.00
9167;DHT22;4618;48.818;9.088;2022-07-29T07:08:04;24.60;1.00
9167;DHT22;4618;48.818;9.088;2022-07-29T07:10:30;24.70;1.00
9167;DHT22;4618;48.818;9.088;2022-07-29T07:12:56;24.80;1.00
9167;DHT22;4618;48.818;9.088;2022-07-29T07:15:21;24.50;1.00
9167;DHT22;4618;48.818;9.088;2022-07-29T07:17:50;24.50;1.00
9167;DHT22;4618;48.818;9.088;2022-07-29T07:20:16;24.70;1.00
9167;DHT22;4618;48.818;9.088;2022-07-29T07:22:42;24.70;99.90
9167;DHT22;4618;48.818;9.088;2022-07-29T07:25:08;24.90;99.90
9167;DHT22;4618;48.818;9.088;2022-07-29T07:27:34;24.90;99.90
9167;DHT22;4618;48.818;9.088;2022-07-29T07:30:00;24.90;99.90
9167;DHT22;4618;48.818;9.088;2022-07-29T07:32:26;24.80;99.90
9167;DHT22;4618;48.818;9.088;2022-07-29T07:34:51;24.80;99.90
9167;DHT22;4618;48.818;9.088;2022-07-29T07:37:17;25.00;99.90
9167;DHT22;4618;48.818;9.088;2022-07-29T07:39:45;25.10;99.90
9167;DHT22;4618;48.818;9.088;2022-07-29T07:42:10;25.50;99.90
9167;DHT22;4618;48.818;9.088;2022-07-29T07:44:38;26.20;99.90
9167;DHT22;4618;48.818;9.088;2022-07-29T07:47:04;26.80;99.90
9167;DHT22;4618;48.818;9.088;2022-07-29T07:49:30;27.40;99.90
9167;DHT22;4618;48.818;9.088;2022-07-29T07:54:21;28.80;99.90
9167;DHT22;4618;48.818;9.088;2022-07-29T07:56:47;29.30;99.90
9167;DHT22;4618;48.818;9.088;2022-07-29T07:59:16;29.00;99.90
9167;DHT22;4618;48.818;9.088;2022-07-29T08:01:42;28.70;99.90
9167;DHT22;4618;48.818;9.088;2022-07-29T08:04:07;28.70;99.90
9167;DHT22;4618;48.818;9.088;2022-07-29T08:06:33;29.00;99.90
9167;DHT22;4618;48.818;9.088;2022-07-29T08:09:01;29.30;99.90
9167;DHT22;4618;48.818;9.088;2022-07-29T08:11:27;28.90;99.90
9167;DHT22;4618;48.818;9.088;2022-07-29T08:13:52;28.40;99.90
9167;DHT22;4618;48.818;9.088;2022-07-29T08:16:18;28.90;99.90
9167;DHT22;4618;48.818;9.088;2022-07-29T08:18:45;29.40;99.90
9167;DHT22;4618;48.818;9.088;2022-07-29T08:21:12;29.90;99.90
9167;DHT22;4618;48.818;9.088;2022-07-29T08:23:38;29.70;99.90
9167;DHT22;4618;48.818;9.088;2022-07-29T08:26:07;30.50;99.90
9167;DHT22;4618;48.818;9.088;2022-07-29T08:28:37;30.80;99.90
9167;DHT22;4618;48.818;9.088;2022-07-29T08:31:02;31.00;99.90
9167;DHT22;4618;48.818;9.088;2022-07-29T08:33:28;31.10;99.90
9167;DHT22;4618;48.818;9.088;2022-07-29T08:35:53;30.70;99.90
9167;DHT22;4618;48.818;9.088;2022-07-29T08:38:19;31.20;99.90
9167;DHT22;4618;48.818;9.088;2022-07-29T08:40:49;31.20;99.90
9167;DHT22;4618;48.818;9.088;2022-07-29T08:43:19;31.40;99.90
9167;DHT22;4618;48.818;9.088;2022-07-29T08:45:47;31.20;99.90
9167;DHT22;4618;48.818;9.088;2022-07-29T08:48:13;31.30;99.90
9167;DHT22;4618;48.818;9.088;2022-07-29T08:53:08;32.40;99.90
9167;DHT22;4618;48.818;9.088;2022-07-29T08:55:38;32.40;99.90
9167;DHT22;4618;48.818;9.088;2022-07-29T08:58:04;32.60;99.90
9167;DHT22;4618;48.818;9.088;2022-07-29T09:00:31;33.80;99.90
9167;DHT22;4618;48.818;9.088;2022-07-29T09:02:57;33.30;99.90
9167;DHT22;4618;48.818;9.088;2022-07-29T09:05:25;32.80;99.90
9167;DHT22;4618;48.818;9.088;2022-07-29T09:07:52;32.00;99.90
9167;DHT22;4618;48.818;9.088;2022-07-29T09:10:18;32.10;99.90
9167;DHT22;4618;48.818;9.088;2022-07-29T09:12:43;32.00;99.90
9167;DHT22;4618;48.818;9.088;2022-07-29T09:15:09;32.30;99.90
9167;DHT22;4618;48.818;9.088;2022-07-29T09:17:42;32.50;99.90
9167;DHT22;4618;48.818;9.088;2022-07-29T09:20:16;32.80;99.90
9167;DHT22;4618;48.818;9.088;2022-07-29T09:22:41;32.50;99.90
9167;DHT22;4618;48.818;9.088;2022-07-29T09:25:07;32.80;99.90
9167;DHT22;4618;48.818;9.088;2022-07-29T09:27:33;32.60;99.90
9167;DHT22;4618;48.818;9.088;2022-07-29T09:30:05;33.00;99.90
9167;DHT22;4618;48.818;9.088;2022-07-29T09:32:32;32.80;99.90
9167;DHT22;4618;48.818;9.088;2022-07-29T09:35:20;33.20;99.90
9167;DHT22;4618;48.818;9.088;2022-07-29T09:37:47;33.60;99.90
9167;DHT22;4618;48.818;9.088;2022-07-29T09:40:18;34.40;99.90
9167;DHT22;4618;48.818;9.088;2022-07-29T09:42:44;34.10;99.90
9167;DHT22;4618;48.818;9.088;2022-07-29T09:45:10;33.70;99.90
9167;DHT22;4618;48.818;9.088;2022-07-29T09:47:44;33.50;99.90
9167;DHT22;4618;48.818;9.088;2022-07-29T09:50:11;34.10;99.90
9167;DHT22;4618;48.818;9.088;2022-07-29T09:52:48;34.80;99.90
9167;DHT22;4618;48.818;9.088;2022-07-29T09:55:15;34.60;99.90
9167;DHT22;4618;48.818;9.088;2022-07-29T09:57:41;35.00;99.90
9167;DHT22;4618;48.818;9.088;2022-07-29T10:02:38;33.80;99.90
9167;DHT22;4618;48.818;9.088;2022-07-29T10:05:21;32.60;99.90
9167;DHT22;4618;48.818;9.088;2022-07-29T10:07:53;31.10;99.90
9167;DHT22;4618;48.818;9.088;2022-07-29T10:10:27;30.00;99.90
9167;DHT22;4618;48.818;9.088;2022-07-29T10:15:27;29.70;99.90
9167;DHT22;4618;48.818;9.088;2022-07-29T10:17:54;29.40;99.90
9167;DHT22;4618;48.818;9.088;2022-07-29T10:20:21;29.20;99.90
9167;DHT22;4618;48.818;9.088;2022-07-29T10:22:48;28.80;99.90
9167;DHT22;4618;48.818;9.088;2022-07-29T10:25:15;28.50;99.90
9167;DHT22;4618;48.818;9.088;2022-07-29T10:27:42;28.10;99.90
9167;DHT22;4618;48.818;9.088;2022-07-29T10:30:08;27.70;99.90
9167;DHT22;4618;48.818;9.088;2022-07-29T10:35:57;27.40;99.90
9167;DHT22;4618;48.818;9.088;2022-07-29T10:38:44;27.00;99.90
9167;DHT22;4618;48.818;9.088;2022-07-29T10:41:43;26.90;99.90
9167;DHT22;4618;48.818;9.088;2022-07-29T10:44:18;26.60;99.90
9167;DHT22;4618;48.818;9.088;2022-07-29T10:46:45;26.20;99.90
9167;DHT22;4618;48.818;9.088;2022-07-29T10:59:49;25.00;99.90
9167;DHT22;4618;48.818;9.088;2022-07-29T11:07:25;23.80;99.90
9167;DHT22;4618;48.818;9.088;2022-07-29T11:15:14;22.30;1.00
9167;DHT22;4618;48.818;9.088;2022-07-29T11:23:21;21.60;12.20
9167;DHT22;4618;48.818;9.088;2022-07-29T11:31:39;22.70;99.90
9167;DHT22;4618;48.818;9.088;2022-07-29T11:39:32;24.70;99.90
9167;DHT22;4618;48.818;9.088;2022-07-29T11:44:55;25.50;99.90
9167;DHT22;4618;48.818;9.088;2022-07-29T11:47:22;26.70;99.90
9167;DHT22;4618;48.818;9.088;2022-07-29T11:49:48;28.60;99.90
9167;DHT22;4618;48.818;9.088;2022-07-29T11:52:14;29.70;99.90
9167;DHT22;4618;48.818;9.088;2022-07-29T11:54:42;29.90;99.90
9167;DHT22;4618;48.818;9.088;2022-07-29T11:57:07;30.20;99.90
9167;DHT22;4618;48.818;9.088;2022-07-29T11:59:39;29.10;99.90
9167;DHT22;4618;48.818;9.088;2022-07-29T12:02:05;28.80;99.90
9167;DHT22;4618;48.818;9.088;2022-07-29T12:04:30;29.20;99.90
9167;DHT22;4618;48.818;9.088;2022-07-29T12:06:56;29.50;99.90
9167;DHT22;4618;48.818;9.088;2022-07-29T12:09:23;28.30;99.90
9167;DHT22;4618;48.818;9.088;2022-07-29T12:11:58;28.10;99.90
9167;DHT22;4618;48.818;9.088;2022-07-29T12:14:31;29.30;99.90
9167;DHT22;4618;48.818;9.088;2022-07-29T12:16:57;30.00;99.90
9167;DHT22;4618;48.818;9.088;2022-07-29T12:19:24;29.80;99.90
9167;DHT22;4618;48.818;9.088;2022-07-29T12:21:54;29.10;99.90
9167;DHT22;4618;48.818;9.088;2022-07-29T12:24:21;28.00;99.90
9167;DHT22;4618;48.818;9.088;2022-07-29T12:26:55;27.60;99.90
9167;DHT22;4618;48.818;9.088;2022-07-29T12:29:22;27.40;99.90
9167;DHT22;4618;48.818;9.088;2022-07-29T12:31:51;27.00;99.90
9167;DHT22;4618;48.818;9.088;2022-07-29T12:34:20;26.00;99.90
9167;DHT22;4618;48.818;9.088;2022-07-29T12:36:48;25.50;99.90
9167;DHT22;4618;48.818;9.088;2022-07-29T12:39:15;24.90;99.90
9167;DHT22;4618;48.818;9.088;2022-07-29T12:41:42;24.90;99.90
9167;DHT22;4618;48.818;9.088;2022-07-29T12:44:08;24.90;99.90
9167;DHT22;4618;48.818;9.088;2022-07-29T12:46:34;24.60;99.90
9167;DHT22;4618;48.818;9.088;2022-07-29T12:48:59;24.30;99.90
9167;DHT22;4618;48.818;9.088;2022-07-29T12:51:32;24.20;99.90
9167;DHT22;4618;48.818;9.088;2022-07-29T12:54:10;24.10;99.90
9167;DHT22;4618;48.818;9.088;2022-07-29T12:56:40;24.30;99.90
9167;DHT22;4618;48.818;9.088;2022-07-29T12:59:20;24.40;99.90
9167;DHT22;4618;48.818;9.088;2022-07-29T13:01:49;24.60;99.90
9167;DHT22;4618;48.818;9.088;2022-07-29T13:04:29;24.60;99.90
9167;DHT22;4618;48.818;9.088;2022-07-29T13:07:03;24.50;99.90
9167;DHT22;4618;48.818;9.088;2022-07-29T13:09:39;24.40;99.90
9167;DHT22;4618;48.818;9.088;2022-07-29T13:12:07;24.50;99.90
9167;DHT22;4618;48.818;9.088;2022-07-29T13:14:36;24.30;99.90
9167;DHT22;4618;48.818;9.088;2022-07-29T13:19:43;24.30;99.90
9167;DHT22;4618;48.818;9.088;2022-07-29T13:22:10;24.50;99.90
9167;DHT22;4618;48.818;9.088;2022-07-29T13:25:22;24.70;99.90
9167;DHT22;4618;48.818;9.088;2022-07-29T13:27:37;24.60;99.90
9167;DHT22;4618;48.818;9.088;2022-07-29T13:30:06;24.60;99.90
9167;DHT22;4618;48.818;9.088;2022-07-29T13:32:33;24.20;99.90
9167;DHT22;4618;48.818;9.088;2022-07-29T13:35:07;23.70;99.90
9167;DHT22;4618;48.818;9.088;2022-07-29T13:37:34;23.80;99.90
9167;DHT22;4618;48.818;9.088;2022-07-29T13:40:04;24.10;99.90
9167;DHT22;4618;48.818;9.088;2022-07-29T13:42:31;24.70;99.90
9167;DHT22;4618;48.818;9.088;2022-07-29T13:44:57;26.00;99.90
9167;DHT22;4618;48.818;9.088;2022-07-29T13:47:23;26.90;99.90
9167;DHT22;4618;48.818;9.088;2022-07-29T13:49:49;27.90;99.90
9167;DHT22;4618;48.818;9.088;2022-07-29T13:52:15;28.20;99.90
9167;DHT22;4618;48.818;9.088;2022-07-29T13:54:41;28.30;99.90
9167;DHT22;4618;48.818;9.088;2022-07-29T13:57:07;28.30;99.90
9167;DHT22;4618;48.818;9.088;2022-07-29T13:59:33;28.10;99.90
9167;DHT22;4618;48.818;9.088;2022-07-29T14:01:59;28.50;99.90
9167;DHT22;4618;48.818;9.088;2022-07-29T14:04:25;28.70;99.90
9167;DHT22;4618;48.818;9.088;2022-07-29T14:06:50;28.70;99.90
9167;DHT22;4618;48.818;9.088;2022-07-29T14:09:16;28.70;99.90
9167;DHT22;4618;48.818;9.088;2022-07-29T14:11:42;28.70;99.90
9167;DHT22;4618;48.818;9.088;2022-07-29T14:14:07;28.70;99.90
9167;DHT22;4618;48.818;9.088;2022-07-29T14:16:33;28.70;99.90
9167;DHT22;4618;48.818;9.088;2022-07-29T14:19:00;28.50;99.90
9167;DHT22;4618;48.818;9.088;2022-07-29T14:21:26;28.10;99.90
9167;DHT22;4618;48.818;9.088;2022-07-29T14:23:51;28.40;99.90
9167;DHT22;4618;48.818;9.088;2022-07-29T14:26:18;27.90;99.90
9167;DHT22;4618;48.818;9.088;2022-07-29T14:28:43;27.70;99.90
9167;DHT22;4618;48.818;9.088;2022-07-29T14:31:09;27.40;99.90
9167;DHT22;4618;48.818;9.088;2022-07-29T14:33:35;27.10;99.90
9167;DHT22;4618;48.818;9.088;2022-07-29T14:36:01;27.20;99.90
9167;DHT22;4618;48.818;9.088;2022-07-29T14:38:26;27.30;99.90
9167;DHT22;4618;48.818;9.088;2022-07-29T14:40:52;27.40;99.90
9167;DHT22;4618;48.818;9.088;2022-07-29T14:43:17;27.50;99.90
9167;DHT22;4618;48.818;9.088;2022-07-29T14:45:43;27.50;99.90
9167;DHT22;4618;48.818;9.088;2022-07-29T14:48:08;27.60;99.90
9167;DHT22;4618;48.818;9.088;2022-07-29T14:50:34;27.50;99.90
9167;DHT22;4618;48.818;9.088;2022-07-29T14:53:00;27.50;99.90
9167;DHT22;4618;48.818;9.088;2022-07-29T14:55:26;27.60;99.90
9167;DHT22;4618;48.818;9.088;2022-07-29T14:57:52;27.40;99.90
9167;DHT22;4618;48.818;9.088;2022-07-29T15:00:18;27.20;99.90
9167;DHT22;4618;48.818;9.088;2022-07-29T15:02:44;27.10;99.90
9167;DHT22;4618;48.818;9.088;2022-07-29T15:05:10;27.10;99.90
9167;DHT22;4618;48.818;9.088;2022-07-29T15:07:35;27.10;99.90
9167;DHT22;4618;48.818;9.088;2022-07-29T15:10:01;27.10;99.90
9167;DHT22;4618;48.818;9.088;2022-07-29T15:12:27;27.10;99.90
9167;DHT22;4618;48.818;9.088;2022-07-29T15:14:53;27.40;99.90
9167;DHT22;4618;48.818;9.088;2022-07-29T15:17:18;27.50;99.90
9167;DHT22;4618;48.818;9.088;2022-07-29T15:19:45;27.30;99.90
9167;DHT22;4618;48.818;9.088;2022-07-29T15:22:11;27.30;99.90
9167;DHT22;4618;48.818;9.088;2022-07-29T15:24:36;27.40;99.90
9167;DHT22;4618;48.818;9.088;2022-07-29T15:27:02;27.30;99.90
9167;DHT22;4618;48.818;9.088;2022-07-29T15:29:27;27.10;99.90
9167;DHT22;4618;48.818;9.088;2022-07-29T15:31:53;27.00;99.90
9167;DHT22;4618;48.818;9.088;2022-07-29T15:34:19;26.90;99.90
9167;DHT22;4618;48.818;9.088;2022-07-29T15:36:46;26.80;99.90
9167;DHT22;4618;48.818;9.088;2022-07-29T15:39:12;27.00;99.90
9167;DHT22;4618;48.818;9.088;2022-07-29T15:41:37;27.00;99.90
9167;DHT22;4618;48.818;9.088;2022-07-29T15:44:03;27.00;99.90
9167;DHT22;4618;48.818;9.088;2022-07-29T15:46:29;27.10;99.90
9167;DHT22;4618;48.818;9.088;2022-07-29T15:49:13;27.30;99.90
9167;DHT22;4618;48.818;9.088;2022-07-29T15:51:38;27.50;99.90
9167;DHT22;4618;48.818;9.088;2022-07-29T15:54:04;27.50;99.90
9167;DHT22;4618;48.818;9.088;2022-07-29T15:56:30;27.50;99.90
9167;DHT22;4618;48.818;9.088;2022-07-29T15:58:56;27.20;99.90
9167;DHT22;4618;48.818;9.088;2022-07-29T16:01:23;27.30;99.90
9167;DHT22;4618;48.818;9.088;2022-07-29T16:03:49;27.30;99.90
9167;DHT22;4618;48.818;9.088;2022-07-29T16:06:15;27.20;99.90
9167;DHT22;4618;48.818;9.088;2022-07-29T16:08:41;27.20;99.90
9167;DHT22;4618;48.818;9.088;2022-07-29T16:11:07;27.20;99.90
9167;DHT22;4618;48.818;9.088;2022-07-29T16:13:32;27.20;99.90
9167;DHT22;4618;48.818;9.088;2022-07-29T16:15:58;27.10;99.90
9167;DHT22;4618;48.818;9.088;2022-07-29T16:18:23;27.10;99.90
9167;DHT22;4618;48.818;9.088;2022-07-29T16:20:49;26.80;99.90
9167;DHT22;4618;48.818;9.088;2022-07-29T16:23:14;26.60;99.90
9167;DHT22;4618;48.818;9.088;2022-07-29T16:25:41;26.60;99.90
9167;DHT22;4618;48.818;9.088;2022-07-29T16:28:07;26.40;99.90
9167;DHT22;4618;48.818;9.088;2022-07-29T16:30:36;26.30;99.90
9167;DHT22;4618;48.818;9.088;2022-07-29T16:33:02;26.40;99.90
9167;DHT22;4618;48.818;9.088;2022-07-29T16:35:28;26.60;99.90
9167;DHT22;4618;48.818;9.088;2022-07-29T16:37:55;26.80;99.90
9167;DHT22;4618;48.818;9.088;2022-07-29T16:40:21;26.90;99.90
9167;DHT22;4618;48.818;9.088;2022-07-29T16:42:46;26.80;99.90
9167;DHT22;4618;48.818;9.088;2022-07-29T16:45:12;26.40;99.90
9167;DHT22;4618;48.818;9.088;2022-07-29T16:47:38;26.50;99.90
9167;DHT22;4618;48.818;9.088;2022-07-29T16:50:04;26.80;99.90
9167;DHT22;4618;48.818;9.088;2022-07-29T16:52:29;26.80;99.90
9167;DHT22;4618;48.818;9.088;2022-07-29T16:54:55;26.80;99.90
9167;DHT22;4618;48.818;9.088;2022-07-29T16:57:20;27.00;99.90
9167;DHT22;4618;48.818;9.088;2022-07-29T16:59:46;26.90;99.90
9167;DHT22;4618;48.818;9.088;2022-07-29T17:02:14;26.40;99.90
9167;DHT22;4618;48.818;9.088;2022-07-29T17:04:39;26.00;99.90
9167;DHT22;4618;48.818;9.088;2022-07-29T17:07:05;25.90;99.90
9167;DHT22;4618;48.818;9.088;2022-07-29T17:09:30;26.10;99.90
9167;DHT22;4618;48.818;9.088;2022-07-29T17:11:56;26.00;99.90
9167;DHT22;4618;48.818;9.088;2022-07-29T17:14:24;26.30;99.90
9167;DHT22;4618;48.818;9.088;2022-07-29T17:16:55;26.50;99.90
9167;DHT22;4618;48.818;9.088;2022-07-29T17:19:21;26.70;99.90